sensor_id;sensor_type;location;lat;lon;timestamp;pressure;altitude;pressure_sealevel;temperature;humidity
61324;BME280;47203;48.428;11.974;2024-01-16T00:02:06;96004.25;;;3.86;43.71
61324;BME280;47203;48.428;11.974;2024-01-16T00:04:10;96006.38;;;3.89;43.54
61324;BME280;47203;48.428;11.974;2024-01-16T00:06:14;96012.38;;;3.90;43.64
61324;BME280;47203;48.428;11.974;2024-01-16T00:08:17;96014.19;;;3.89;43.63
61324;BME280;47203;48.428;11.974;2024-01-16T00:10:20;96021.75;;;3.91;43.67
61324;BME280;47203;48.428;11.974;2024-01-16T00:12:26;96024.91;;;3.93;43.54
61324;BME280;47203;48.428;11.974;2024-01-16T00:14:29;96023.66;;;3.95;43.48
61324;BME280;47203;48.428;11.974;2024-01-16T00:16:32;96021.03;;;3.95;43.58
61324;BME280;47203;48.428;11.974;2024-01-16T00:18:36;96029.44;;;3.97;43.44
61324;BME280;47203;48.428;11.974;2024-01-16T00:20:39;96028.63;;;3.97;43.53
61324;BME280;47203;48.428;11.974;2024-01-16T00:22:42;96039.59;;;3.99;43.44
61324;BME280;47203;48.428;11.974;2024-01-16T00:24:45;96045.34;;;4.01;43.39
61324;BME280;47203;48.428;11.974;2024-01-16T00:26:49;96042.97;;;3.99;43.38
61324;BME280;47203;48.428;11.974;2024-01-16T00:28:54;96045.34;;;4.01;43.36
61324;BME280;47203;48.428;11.974;2024-01-16T00:30:57;96041.97;;;4.00;43.37
61324;BME280;47203;48.428;11.974;2024-01-16T00:33:02;96049.53;;;4.02;43.13
61324;BME280;47203;48.428;11.974;2024-01-16T00:35:06;96052.13;;;4.02;43.33
61324;BME280;47203;48.428;11.974;2024-01-16T00:37:12;96047.94;;;4.01;43.25
61324;BME280;47203;48.428;11.974;2024-01-16T00:39:15;96056.53;;;4.01;43.27
61324;BME280;47203;48.428;11.974;2024-01-16T00:41:18;96052.13;;;4.02;43.39
61324;BME280;47203;48.428;11.974;2024-01-16T00:43:21;96048.72;;;4.01;43.34
61324;BME280;47203;48.428;11.974;2024-01-16T00:45:25;96053.72;;;4.03;43.18
61324;BME280;47203;48.428;11.974;2024-01-16T00:47:29;96055.75;;;4.01;43.34
61324;BME280;47203;48.428;11.974;2024-01-16T00:49:32;96057.81;;;3.99;43.36
61324;BME280;47203;48.428;11.974;2024-01-16T00:51:36;96053.88;;;3.96;43.38
61324;BME280;47203;48.428;11.974;2024-01-16T00:53:43;96068.16;;;3.94;43.40
61324;BME280;47203;48.428;11.974;2024-01-16T00:55:46;96064.78;;;3.93;43.42
61324;BME280;47203;48.428;11.974;2024-01-16T00:57:49;96057.19;;;3.92;43.44
61324;BME280;47203;48.428;11.974;2024-01-16T00:59:52;96068.63;;;3.91;43.44
61324;BME280;47203;48.428;11.974;2024-01-16T01:01:58;96065.25;;;3.90;43.37
61324;BME280;47203;48.428;11.974;2024-01-16T01:04:01;96059.22;;;3.90;43.38
61324;BME280;47203;48.428;11.974;2024-01-16T01:06:05;96071.47;;;3.89;43.45
61324;BME280;47203;48.428;11.974;2024-01-16T01:08:08;96070.69;;;3.89;43.23
61324;BME280;47203;48.428;11.974;2024-01-16T01:10:11;96069.34;;;3.86;43.29
61324;BME280;47203;48.428;11.974;2024-01-16T01:12:14;96070.94;;;3.87;43.33
61324;BME280;47203;48.428;11.974;2024-01-16T01:14:17;96076.13;;;3.87;43.50
61324;BME280;47203;48.428;11.974;2024-01-16T01:16:22;96077.47;;;3.90;43.44
61324;BME280;47203;48.428;11.974;2024-01-16T01:18:26;96089.16;;;3.87;43.34
61324;BME280;47203;48.428;11.974;2024-01-16T01:20:30;96085.28;;;3.90;43.31
61324;BME280;47203;48.428;11.974;2024-01-16T01:22:32;96085.84;;;3.92;43.37
61324;BME280;47203;48.428;11.974;2024-01-16T01:24:36;96099.72;;;3.97;43.30
61324;BME280;47203;48.428;11.974;2024-01-16T01:26:43;96090.88;;;3.98;43.19
61324;BME280;47203;48.428;11.974;2024-01-16T01:28:46;96094.28;;;3.99;43.24
61324;BME280;47203;48.428;11.974;2024-01-16T01:30:50;96097.44;;;4.01;43.22
61324;BME280;47203;48.428;11.974;2024-01-16T01:32:52;96101.38;;;4.04;43.33
61324;BME280;47203;48.428;11.974;2024-01-16T01:34:57;96103.75;;;4.05;43.29
61324;BME280;47203;48.428;11.974;2024-01-16T01:37:00;96108.47;;;4.08;43.12
61324;BME280;47203;48.428;11.974;2024-01-16T01:39:03;96113.69;;;4.08;43.20
61324;BME280;47203;48.428;11.974;2024-01-16T01:41:07;96107.94;;;4.06;43.11
61324;BME280;47203;48.428;11.974;2024-01-16T01:43:21;96122.22;;;4.04;43.04
61324;BME280;47203;48.428;11.974;2024-01-16T01:45:25;96122.22;;;4.04;43.13
61324;BME280;47203;48.428;11.974;2024-01-16T01:47:30;96119.28;;;4.00;43.13
61324;BME280;47203;48.428;11.974;2024-01-16T01:49:36;96121.09;;;3.99;43.16
61324;BME280;47203;48.428;11.974;2024-01-16T01:51:42;96123.16;;;3.97;43.20
61324;BME280;47203;48.428;11.974;2024-01-16T01:53:47;96128.38;;;3.97;43.09
61324;BME280;47203;48.428;11.974;2024-01-16T01:55:53;96130.97;;;3.97;43.00
61324;BME280;47203;48.428;11.974;2024-01-16T01:57:57;96130.16;;;3.97;42.90
61324;BME280;47203;48.428;11.974;2024-01-16T02:00:00;96138.44;;;3.94;42.93
61324;BME280;47203;48.428;11.974;2024-01-16T02:02:14;96132.13;;;3.90;43.12
61324;BME280;47203;48.428;11.974;2024-01-16T02:04:19;96139.63;;;3.86;43.06
61324;BME280;47203;48.428;11.974;2024-01-16T02:06:25;96137.28;;;3.84;43.02
61324;BME280;47203;48.428;11.974;2024-01-16T02:08:30;96149.72;;;3.82;43.00
61324;BME280;47203;48.428;11.974;2024-01-16T02:10:36;96137.16;;;3.79;43.01
61324;BME280;47203;48.428;11.974;2024-01-16T02:12:40;96148.63;;;3.78;43.10
61324;BME280;47203;48.428;11.974;2024-01-16T02:14:43;96148.41;;;3.80;42.97
61324;BME280;47203;48.428;11.974;2024-01-16T02:16:47;96152.78;;;3.79;42.70
61324;BME280;47203;48.428;11.974;2024-01-16T02:18:51;96164.72;;;3.75;42.84
61324;BME280;47203;48.428;11.974;2024-01-16T02:21:00;96165.63;;;3.69;42.81
61324;BME280;47203;48.428;11.974;2024-01-16T02:23:05;96164.84;;;3.69;42.96
61324;BME280;47203;48.428;11.974;2024-01-16T02:25:11;96162.47;;;3.67;42.98
61324;BME280;47203;48.428;11.974;2024-01-16T02:27:15;96161.72;;;3.66;42.93
61324;BME280;47203;48.428;11.974;2024-01-16T02:29:19;96163.19;;;3.62;42.77
61324;BME280;47203;48.428;11.974;2024-01-16T02:31:22;96164.19;;;3.61;42.82
61324;BME280;47203;48.428;11.974;2024-01-16T02:33:26;96161.72;;;3.55;42.86
61324;BME280;47203;48.428;11.974;2024-01-16T02:35:29;96166.94;;;3.55;42.94
61324;BME280;47203;48.428;11.974;2024-01-16T02:37:33;96177.03;;;3.51;42.97
61324;BME280;47203;48.428;11.974;2024-01-16T02:39:36;96171.03;;;3.51;42.97
61324;BME280;47203;48.428;11.974;2024-01-16T02:41:41;96159.28;;;3.48;42.93
61324;BME280;47203;48.428;11.974;2024-01-16T02:43:44;96165.59;;;3.52;43.07
61324;BME280;47203;48.428;11.974;2024-01-16T02:45:47;96161.66;;;3.49;42.86
61324;BME280;47203;48.428;11.974;2024-01-16T02:47:51;96162.91;;;3.47;42.77
61324;BME280;47203;48.428;11.974;2024-01-16T02:49:54;96170.38;;;3.43;42.96
61324;BME280;47203;48.428;11.974;2024-01-16T02:51:57;96168.03;;;3.42;42.87
61324;BME280;47203;48.428;11.974;2024-01-16T02:54:00;96162.69;;;3.37;43.00
61324;BME280;47203;48.428;11.974;2024-01-16T02:56:04;96171.41;;;3.42;42.77
61324;BME280;47203;48.428;11.974;2024-01-16T02:58:09;96166.66;;;3.39;42.77
61324;BME280;47203;48.428;11.974;2024-01-16T03:00:13;96174.47;;;3.39;42.88
61324;BME280;47203;48.428;11.974;2024-01-16T03:02:16;96176.25;;;3.39;42.83
61324;BME280;47203;48.428;11.974;2024-01-16T03:04:20;96174.94;;;3.36;42.80
61324;BME280;47203;48.428;11.974;2024-01-16T03:06:24;96178.53;;;3.35;42.67
61324;BME280;47203;48.428;11.974;2024-01-16T03:08:28;96174.34;;;3.34;42.85
61324;BME280;47203;48.428;11.974;2024-01-16T03:10:31;96184.53;;;3.36;42.82
61324;BME280;47203;48.428;11.974;2024-01-16T03:12:35;96176.19;;;3.34;42.68
61324;BME280;47203;48.428;11.974;2024-01-16T03:14:39;96179.00;;;3.32;42.79
61324;BME280;47203;48.428;11.974;2024-01-16T03:16:42;96183.44;;;3.31;42.73
61324;BME280;47203;48.428;11.974;2024-01-16T03:18:46;96173.03;;;3.31;42.73
61324;BME280;47203;48.428;11.974;2024-01-16T03:20:50;96196.66;;;3.30;42.88
61324;BME280;47203;48.428;11.974;2024-01-16T03:22:53;96178.44;;;3.30;42.75
61324;BME280;47203;48.428;11.974;2024-01-16T03:24:57;96193.72;;;3.26;42.76
61324;BME280;47203;48.428;11.974;2024-01-16T03:27:00;96181.72;;;3.25;42.76
61324;BME280;47203;48.428;11.974;2024-01-16T03:29:03;96195.78;;;3.24;42.74
61324;BME280;47203;48.428;11.974;2024-01-16T03:31:12;96188.63;;;3.20;42.80
61324;BME280;47203;48.428;11.974;2024-01-16T03:33:17;96193.97;;;3.25;42.70
61324;BME280;47203;48.428;11.974;2024-01-16T03:35:20;96196.78;;;3.23;42.72
61324;BME280;47203;48.428;11.974;2024-01-16T03:37:23;96196.56;;;3.25;42.71
61324;BME280;47203;48.428;11.974;2024-01-16T03:39:27;96204.69;;;3.28;42.68
61324;BME280;47203;48.428;11.974;2024-01-16T03:41:30;96202.88;;;3.29;42.70
61324;BME280;47203;48.428;11.974;2024-01-16T03:43:33;96210.09;;;3.27;42.62
61324;BME280;47203;48.428;11.974;2024-01-16T03:45:37;96203.13;;;3.27;42.71
61324;BME280;47203;48.428;11.974;2024-01-16T03:47:42;96198.69;;;3.28;42.69
61324;BME280;47203;48.428;11.974;2024-01-16T03:49:46;96201.28;;;3.28;42.53
61324;BME280;47203;48.428;11.974;2024-01-16T03:51:50;96196.66;;;3.30;42.76
61324;BME280;47203;48.428;11.974;2024-01-16T03:53:54;96188.63;;;3.31;42.71
61324;BME280;47203;48.428;11.974;2024-01-16T03:55:57;96195.31;;;3.27;42.65
61324;BME280;47203;48.428;11.974;2024-01-16T03:58:00;96193.25;;;3.29;42.66
61324;BME280;47203;48.428;11.974;2024-01-16T04:00:06;96190.88;;;3.28;42.69
61324;BME280;47203;48.428;11.974;2024-01-16T04:02:09;96192.13;;;3.25;42.68
61324;BME280;47203;48.428;11.974;2024-01-16T04:04:15;96191.66;;;3.28;42.61
61324;BME280;47203;48.428;11.974;2024-01-16T04:06:18;96187.03;;;3.30;42.70
61324;BME280;47203;48.428;11.974;2024-01-16T04:08:21;96194.03;;;3.30;42.35
61324;BME280;47203;48.428;11.974;2024-01-16T04:10:26;96190.44;;;3.31;42.48
61324;BME280;47203;48.428;11.974;2024-01-16T04:12:29;96190.44;;;3.31;42.57
61324;BME280;47203;48.428;11.974;2024-01-16T04:14:32;96199.81;;;3.32;42.49
61324;BME280;47203;48.428;11.974;2024-01-16T04:16:36;96192.25;;;3.30;42.55
61324;BME280;47203;48.428;11.974;2024-01-16T04:18:41;96205.25;;;3.30;42.58
61324;BME280;47203;48.428;11.974;2024-01-16T04:20:46;96196.66;;;3.30;42.43
61324;BME280;47203;48.428;11.974;2024-01-16T04:22:49;96189.53;;;3.25;42.57
61324;BME280;47203;48.428;11.974;2024-01-16T04:24:53;96190.13;;;3.27;42.59
61324;BME280;47203;48.428;11.974;2024-01-16T04:26:56;96189.75;;;3.24;42.75
61324;BME280;47203;48.428;11.974;2024-01-16T04:28:59;96194.97;;;3.24;42.47
61324;BME280;47203;48.428;11.974;2024-01-16T04:31:03;96191.34;;;3.25;42.39
61324;BME280;47203;48.428;11.974;2024-01-16T04:33:06;96193.97;;;3.25;42.60
61324;BME280;47203;48.428;11.974;2024-01-16T04:35:09;96197.81;;;3.22;42.54
61324;BME280;47203;48.428;11.974;2024-01-16T04:37:14;96188.63;;;3.20;42.58
61324;BME280;47203;48.428;11.974;2024-01-16T04:39:17;96187.63;;;3.21;42.45
61324;BME280;47203;48.428;11.974;2024-01-16T04:41:19;96180.41;;;3.23;42.50
61324;BME280;47203;48.428;11.974;2024-01-16T04:43:23;96183.00;;;3.23;42.40
61324;BME280;47203;48.428;11.974;2024-01-16T04:45:27;96181.97;;;3.24;42.53
61324;BME280;47203;48.428;11.974;2024-01-16T04:47:31;96183.56;;;3.25;42.54
61324;BME280;47203;48.428;11.974;2024-01-16T04:49:34;96181.97;;;3.24;42.53
61324;BME280;47203;48.428;11.974;2024-01-16T04:51:37;96186.84;;;3.20;42.37
61324;BME280;47203;48.428;11.974;2024-01-16T04:53:42;96184.47;;;3.19;42.49
61324;BME280;47203;48.428;11.974;2024-01-16T04:55:46;96181.53;;;3.15;42.37
61324;BME280;47203;48.428;11.974;2024-01-16T04:57:49;96195.13;;;3.17;42.52
61324;BME280;47203;48.428;11.974;2024-01-16T04:59:53;96190.13;;;3.16;42.41
61324;BME280;47203;48.428;11.974;2024-01-16T05:01:56;96195.34;;;3.16;42.48
61324;BME280;47203;48.428;11.974;2024-01-16T05:04:00;96194.53;;;3.15;42.46
61324;BME280;47203;48.428;11.974;2024-01-16T05:06:03;96191.38;;;3.13;42.51
61324;BME280;47203;48.428;11.974;2024-01-16T05:08:07;96193.16;;;3.12;42.49
61324;BME280;47203;48.428;11.974;2024-01-16T05:10:13;96189.00;;;3.11;42.39
61324;BME280;47203;48.428;11.974;2024-01-16T05:12:16;96198.19;;;3.14;42.45
61324;BME280;47203;48.428;11.974;2024-01-16T05:14:19;96200.53;;;3.16;42.40
61324;BME280;47203;48.428;11.974;2024-01-16T05:16:25;96212.50;;;3.17;42.48
61324;BME280;47203;48.428;11.974;2024-01-16T05:18:28;96197.72;;;3.17;42.26
61324;BME280;47203;48.428;11.974;2024-01-16T05:20:32;96194.66;;;3.20;42.39
61324;BME280;47203;48.428;11.974;2024-01-16T05:22:34;96200.88;;;3.19;42.17
61324;BME280;47203;48.428;11.974;2024-01-16T05:24:38;96196.13;;;3.16;42.32
61324;BME280;47203;48.428;11.974;2024-01-16T05:26:43;96200.53;;;3.16;42.34
61324;BME280;47203;48.428;11.974;2024-01-16T05:28:47;96205.75;;;3.16;42.26
61324;BME280;47203;48.428;11.974;2024-01-16T05:30:50;96215.09;;;3.17;42.26
61324;BME280;47203;48.428;11.974;2024-01-16T05:32:54;96197.72;;;3.17;42.33
61324;BME280;47203;48.428;11.974;2024-01-16T05:34:58;96196.66;;;3.18;42.23
61324;BME280;47203;48.428;11.974;2024-01-16T05:37:02;96196.44;;;3.20;42.22
61324;BME280;47203;48.428;11.974;2024-01-16T05:39:05;96189.69;;;3.19;42.11
61324;BME280;47203;48.428;11.974;2024-01-16T05:41:10;96191.69;;;3.17;42.12
61324;BME280;47203;48.428;11.974;2024-01-16T05:43:14;96182.56;;;3.14;42.13
61324;BME280;47203;48.428;11.974;2024-01-16T05:45:18;96189.34;;;3.15;42.12
61324;BME280;47203;48.428;11.974;2024-01-16T05:47:21;96195.56;;;3.14;42.09
61324;BME280;47203;48.428;11.974;2024-01-16T05:49:26;96185.16;;;3.14;42.17
61324;BME280;47203;48.428;11.974;2024-01-16T05:51:30;96187.97;;;3.12;41.98
61324;BME280;47203;48.428;11.974;2024-01-16T05:53:33;96188.19;;;3.11;42.04
61324;BME280;47203;48.428;11.974;2024-01-16T05:55:36;96189.72;;;3.07;41.95
61324;BME280;47203;48.428;11.974;2024-01-16T05:57:40;96193.53;;;3.04;41.88
61324;BME280;47203;48.428;11.974;2024-01-16T05:59:46;96196.03;;;2.99;41.87
61324;BME280;47203;48.428;11.974;2024-01-16T06:01:50;96191.50;;;2.94;42.01
61324;BME280;47203;48.428;11.974;2024-01-16T06:03:53;96192.75;;;2.92;41.90
61324;BME280;47203;48.428;11.974;2024-01-16T06:05:57;96193.66;;;2.86;41.81
61324;BME280;47203;48.428;11.974;2024-01-16T06:08:01;96202.47;;;2.85;42.03
61324;BME280;47203;48.428;11.974;2024-01-16T06:10:06;96204.53;;;2.83;42.06
61324;BME280;47203;48.428;11.974;2024-01-16T06:12:10;96200.34;;;2.82;41.98
61324;BME280;47203;48.428;11.974;2024-01-16T06:14:20;96204.97;;;2.79;42.00
61324;BME280;47203;48.428;11.974;2024-01-16T06:16:26;96196.63;;;2.77;42.09
61324;BME280;47203;48.428;11.974;2024-01-16T06:18:28;96204.44;;;2.77;42.09
61324;BME280;47203;48.428;11.974;2024-01-16T06:20:32;96200.25;;;2.76;41.99
61324;BME280;47203;48.428;11.974;2024-01-16T06:22:35;96192.91;;;2.73;41.99
61324;BME280;47203;48.428;11.974;2024-01-16T06:24:39;96198.31;;;2.72;41.97
61324;BME280;47203;48.428;11.974;2024-01-16T06:26:42;96203.97;;;2.69;42.07
61324;BME280;47203;48.428;11.974;2024-01-16T06:28:45;96198.44;;;2.65;42.12
61324;BME280;47203;48.428;11.974;2024-01-16T06:30:48;96202.63;;;2.66;42.02
61324;BME280;47203;48.428;11.974;2024-01-16T06:32:53;96196.84;;;2.64;42.10
61324;BME280;47203;48.428;11.974;2024-01-16T06:34:57;96198.66;;;2.64;42.27
61324;BME280;47203;48.428;11.974;2024-01-16T06:37:00;96191.88;;;2.62;41.96
61324;BME280;47203;48.428;11.974;2024-01-16T06:39:05;96206.13;;;2.60;42.08
61324;BME280;47203;48.428;11.974;2024-01-16T06:41:08;96200.94;;;2.60;42.26
61324;BME280;47203;48.428;11.974;2024-01-16T06:43:12;96203.53;;;2.60;42.19
61324;BME280;47203;48.428;11.974;2024-01-16T06:45:17;96209.72;;;2.59;41.99
61324;BME280;47203;48.428;11.974;2024-01-16T06:47:21;96213.56;;;2.56;41.99
61324;BME280;47203;48.428;11.974;2024-01-16T06:49:27;96209.38;;;2.55;42.06
61324;BME280;47203;48.428;11.974;2024-01-16T06:51:30;96204.75;;;2.57;42.09
61324;BME280;47203;48.428;11.974;2024-01-16T06:53:33;96202.16;;;2.57;42.02
61324;BME280;47203;48.428;11.974;2024-01-16T06:55:37;96205.53;;;2.58;42.01
61324;BME280;47203;48.428;11.974;2024-01-16T06:57:40;96198.75;;;2.57;42.09
61324;BME280;47203;48.428;11.974;2024-01-16T06:59:43;96203.53;;;2.60;42.07
61324;BME280;47203;48.428;11.974;2024-01-16T07:01:47;96202.72;;;2.59;41.92
61324;BME280;47203;48.428;11.974;2024-01-16T07:03:51;96200.94;;;2.60;42.06
61324;BME280;47203;48.428;11.974;2024-01-16T07:05:56;96199.34;;;2.59;41.94
61324;BME280;47203;48.428;11.974;2024-01-16T07:07:59;96201.72;;;2.60;41.99
61324;BME280;47203;48.428;11.974;2024-01-16T07:10:04;96204.06;;;2.62;41.79
61324;BME280;47203;48.428;11.974;2024-01-16T07:12:10;96207.22;;;2.64;42.12
61324;BME280;47203;48.428;11.974;2024-01-16T07:14:13;96211.19;;;2.67;41.97
61324;BME280;47203;48.428;11.974;2024-01-16T07:16:17;96211.78;;;2.69;42.24
61324;BME280;47203;48.428;11.974;2024-01-16T07:18:20;96209.97;;;2.69;42.03
61324;BME280;47203;48.428;11.974;2024-01-16T07:20:23;96216.75;;;2.70;42.09
61324;BME280;47203;48.428;11.974;2024-01-16T07:22:28;96214.38;;;2.69;41.95
61324;BME280;47203;48.428;11.974;2024-01-16T07:24:31;96213.34;;;2.70;42.13
61324;BME280;47203;48.428;11.974;2024-01-16T07:26:34;96217.75;;;2.69;41.92
61324;BME280;47203;48.428;11.974;2024-01-16T07:28:39;96211.97;;;2.67;42.09
61324;BME280;47203;48.428;11.974;2024-01-16T07:30:41;96214.56;;;2.67;42.16
61324;BME280;47203;48.428;11.974;2024-01-16T07:32:44;96207.81;;;2.66;42.21
61324;BME280;47203;48.428;11.974;2024-01-16T07:34:48;96213.91;;;2.72;42.16
61324;BME280;47203;48.428;11.974;2024-01-16T07:36:53;96212.88;;;2.73;42.14
61324;BME280;47203;48.428;11.974;2024-01-16T07:38:58;96211.88;;;2.74;42.15
61324;BME280;47203;48.428;11.974;2024-01-16T07:41:02;96212.09;;;2.72;42.07
61324;BME280;47203;48.428;11.974;2024-01-16T07:43:05;96216.50;;;2.72;42.14
61324;BME280;47203;48.428;11.974;2024-01-16T07:45:09;96211.78;;;2.69;42.18
61324;BME280;47203;48.428;11.974;2024-01-16T07:47:12;96217.75;;;2.69;42.24
61324;BME280;47203;48.428;11.974;2024-01-16T07:49:16;96220.81;;;2.66;42.12
61324;BME280;47203;48.428;11.974;2024-01-16T07:51:19;96223.03;;;2.62;42.22
61324;BME280;47203;48.428;11.974;2024-01-16T07:53:23;96216.28;;;2.61;42.20
61324;BME280;47203;48.428;11.974;2024-01-16T07:55:31;96216.50;;;2.60;42.24
61324;BME280;47203;48.428;11.974;2024-01-16T07:57:34;96228.25;;;2.62;42.28
61324;BME280;47203;48.428;11.974;2024-01-16T07:59:38;96223.03;;;2.62;42.29
61324;BME280;47203;48.428;11.974;2024-01-16T08:01:43;96236.03;;;2.62;42.11
61324;BME280;47203;48.428;11.974;2024-01-16T08:03:46;96223.63;;;2.65;42.16
61324;BME280;47203;48.428;11.974;2024-01-16T08:05:49;96222.03;;;2.64;42.24
61324;BME280;47203;48.428;11.974;2024-01-16T08:07:53;96224.63;;;2.64;42.25
61324;BME280;47203;48.428;11.974;2024-01-16T08:09:56;96217.63;;;2.64;42.28
61324;BME280;47203;48.428;11.974;2024-01-16T08:12:01;96224.19;;;2.67;42.29
61324;BME280;47203;48.428;11.974;2024-01-16T08:14:04;96218.75;;;2.68;42.30
61324;BME280;47203;48.428;11.974;2024-01-16T08:16:08;96222.50;;;2.72;42.09
61324;BME280;47203;48.428;11.974;2024-01-16T08:18:14;96221.25;;;2.75;42.36
61324;BME280;47203;48.428;11.974;2024-01-16T08:20:20;96214.00;;;2.77;42.43
61324;BME280;47203;48.428;11.974;2024-01-16T08:22:23;96218.53;;;2.82;42.33
61324;BME280;47203;48.428;11.974;2024-01-16T08:24:26;96219.88;;;2.84;42.21
61324;BME280;47203;48.428;11.974;2024-01-16T08:26:30;96221.81;;;2.89;42.34
61324;BME280;47203;48.428;11.974;2024-01-16T08:28:36;96217.75;;;2.93;42.34
61324;BME280;47203;48.428;11.974;2024-01-16T08:30:39;96229.59;;;3.01;42.33
61324;BME280;47203;48.428;11.974;2024-01-16T08:32:42;96237.06;;;3.09;42.29
61324;BME280;47203;48.428;11.974;2024-01-16T08:34:45;96237.50;;;3.18;42.18
61324;BME280;47203;48.428;11.974;2024-01-16T08:36:49;96227.53;;;3.26;42.18
61324;BME280;47203;48.428;11.974;2024-01-16T08:38:52;96220.94;;;3.36;42.05
61324;BME280;47203;48.428;11.974;2024-01-16T08:40:57;96223.19;;;3.44;42.14
61324;BME280;47203;48.428;11.974;2024-01-16T08:43:03;96223.63;;;3.53;42.05
61324;BME280;47203;48.428;11.974;2024-01-16T08:45:09;96219.16;;;3.65;42.16
61324;BME280;47203;48.428;11.974;2024-01-16T08:47:12;96220.16;;;3.76;42.23
61324;BME280;47203;48.428;11.974;2024-01-16T08:49:14;96222.94;;;3.86;42.09
61324;BME280;47203;48.428;11.974;2024-01-16T08:51:22;96217.69;;;3.98;42.00
61324;BME280;47203;48.428;11.974;2024-01-16T08:53:26;96212.66;;;4.08;41.95
61324;BME280;47203;48.428;11.974;2024-01-16T08:55:30;96216.69;;;4.16;41.81
61324;BME280;47203;48.428;11.974;2024-01-16T08:57:33;96214.47;;;4.25;41.90
61324;BME280;47203;48.428;11.974;2024-01-16T08:59:36;96215.34;;;4.30;41.80
61324;BME280;47203;48.428;11.974;2024-01-16T09:01:42;96219.06;;;4.34;41.72
61324;BME280;47203;48.428;11.974;2024-01-16T09:03:46;96215.44;;;4.35;41.71
61324;BME280;47203;48.428;11.974;2024-01-16T09:05:50;96212.59;;;4.37;41.65
61324;BME280;47203;48.428;11.974;2024-01-16T09:07:55;96212.38;;;4.39;41.70
61324;BME280;47203;48.428;11.974;2024-01-16T09:09:58;96206.69;;;4.42;41.60
61324;BME280;47203;48.428;11.974;2024-01-16T09:12:02;96206.97;;;4.45;41.65
61324;BME280;47203;48.428;11.974;2024-01-16T09:14:05;96205.97;;;4.46;41.48
61324;BME280;47203;48.428;11.974;2024-01-16T09:16:09;96207.84;;;4.51;41.43
61324;BME280;47203;48.428;11.974;2024-01-16T09:18:14;96201.63;;;4.52;41.55
61324;BME280;47203;48.428;11.974;2024-01-16T09:20:18;96192.78;;;4.53;41.49
61324;BME280;47203;48.428;11.974;2024-01-16T09:22:21;96193.09;;;4.57;41.51
61324;BME280;47203;48.428;11.974;2024-01-16T09:24:24;96192.38;;;4.61;41.45
61324;BME280;47203;48.428;11.974;2024-01-16T09:26:28;96195.31;;;4.65;41.43
61324;BME280;47203;48.428;11.974;2024-01-16T09:28:33;96193.31;;;4.72;41.51
61324;BME280;47203;48.428;11.974;2024-01-16T09:30:37;96189.50;;;4.80;41.33
61324;BME280;47203;48.428;11.974;2024-01-16T09:32:42;96187.03;;;4.90;41.35
61324;BME280;47203;48.428;11.974;2024-01-16T09:34:47;96193.34;;;4.94;41.28
61324;BME280;47203;48.428;11.974;2024-01-16T09:36:51;96188.28;;;5.04;41.04
61324;BME280;47203;48.428;11.974;2024-01-16T09:38:55;96191.66;;;5.05;41.17
61324;BME280;47203;48.428;11.974;2024-01-16T09:40:59;96194.75;;;5.02;41.27
61324;BME280;47203;48.428;11.974;2024-01-16T09:43:02;96196.25;;;4.98;41.21
61324;BME280;47203;48.428;11.974;2024-01-16T09:45:08;96199.59;;;4.93;41.29
61324;BME280;47203;48.428;11.974;2024-01-16T09:47:13;96197.94;;;4.87;41.24
61324;BME280;47203;48.428;11.974;2024-01-16T09:49:18;96203.91;;;4.82;41.34
61324;BME280;47203;48.428;11.974;2024-01-16T09:51:23;96198.59;;;4.77;41.29
61324;BME280;47203;48.428;11.974;2024-01-16T09:53:27;96202.69;;;4.73;41.42
61324;BME280;47203;48.428;11.974;2024-01-16T09:55:30;96209.22;;;4.70;41.50
61324;BME280;47203;48.428;11.974;2024-01-16T09:57:33;96209.44;;;4.69;41.48
61324;BME280;47203;48.428;11.974;2024-01-16T09:59:39;96205.25;;;4.68;41.43
61324;BME280;47203;48.428;11.974;2024-01-16T10:01:44;96199.25;;;4.67;41.44
61324;BME280;47203;48.428;11.974;2024-01-16T10:03:48;96200.81;;;4.68;41.47
61324;BME280;47203;48.428;11.974;2024-01-16T10:05:54;96196.66;;;4.67;41.43
61324;BME280;47203;48.428;11.974;2024-01-16T10:08:00;96204.22;;;4.69;41.56
61324;BME280;47203;48.428;11.974;2024-01-16T10:10:04;96196.94;;;4.71;41.64
61324;BME280;47203;48.428;11.974;2024-01-16T10:12:08;96193.56;;;4.70;41.60
61324;BME280;47203;48.428;11.974;2024-01-16T10:14:12;96195.69;;;4.74;41.70
61324;BME280;47203;48.428;11.974;2024-01-16T10:16:15;96192.91;;;4.80;41.58
61324;BME280;47203;48.428;11.974;2024-01-16T10:18:23;96187.00;;;4.85;41.62
61324;BME280;47203;48.428;11.974;2024-01-16T10:20:35;96187.28;;;4.88;41.67
61324;BME280;47203;48.428;11.974;2024-01-16T10:22:40;96186.78;;;4.92;41.59
61324;BME280;47203;48.428;11.974;2024-01-16T10:24:45;96180.31;;;4.94;41.84
61324;BME280;47203;48.428;11.974;2024-01-16T10:26:58;96180.63;;;4.98;41.81
61324;BME280;47203;48.428;11.974;2024-01-16T10:29:03;96178.31;;;5.01;41.62
61324;BME280;47203;48.428;11.974;2024-01-16T10:31:09;96179.91;;;5.02;41.69
61324;BME280;47203;48.428;11.974;2024-01-16T10:33:15;96186.16;;;5.01;41.48
61324;BME280;47203;48.428;11.974;2024-01-16T10:35:20;96186.41;;;5.00;41.57
61324;BME280;47203;48.428;11.974;2024-01-16T10:37:23;96181.41;;;4.98;41.50
61324;BME280;47203;48.428;11.974;2024-01-16T10:39:25;96193.97;;;5.01;41.64
61324;BME280;47203;48.428;11.974;2024-01-16T10:41:54;96193.50;;;5.04;41.73
61324;BME280;47203;48.428;11.974;2024-01-16T10:44:05;96183.13;;;5.10;41.63
61324;BME280;47203;48.428;11.974;2024-01-16T10:46:11;96181.59;;;5.14;41.62
61324;BME280;47203;48.428;11.974;2024-01-16T10:48:17;96178.56;;;5.22;41.58
61324;BME280;47203;48.428;11.974;2024-01-16T10:50:20;96170.34;;;5.30;41.74
61324;BME280;47203;48.428;11.974;2024-01-16T10:52:28;96166.75;;;5.36;41.55
61324;BME280;47203;48.428;11.974;2024-01-16T10:54:33;96165.75;;;5.42;41.49
61324;BME280;47203;48.428;11.974;2024-01-16T10:56:44;96159.81;;;5.47;41.65
61324;BME280;47203;48.428;11.974;2024-01-16T10:59:00;96156.69;;;5.50;41.31